Time;durP1;ratioP1;P1;durP2;ratioP2;P2;SDS_P1;SDS_P2;PMS_P1;PMS_P2;Temp;Humidity;BMP_temperature;BMP_pressure;BME280_temperature;BME280_humidity;BME280_pressure;Samples;Min_cycle;Max_cycle;Signal;HPM_P1;HPM_P2
2021/08/02 00:01:28;;;;;;;5.50;2.72;;;;;;;;;;5094363;28;20513;-69
2021/08/02 00:04:01;;;;;;;3.60;2.60;;;;;;;;;;5108695;28;20022;-69
2021/08/02 00:06:29;;;;;;;5.88;2.70;;;;;;;;;;5114781;28;20492;-68
2021/08/02 00:09:08;;;;;;;2.50;2.30;;;;;;;;;;5114664;28;20023;-68
2021/08/02 00:11:35;;;;;;;2.78;2.53;;;;;;;;;;5114524;28;20470;-69
2021/08/02 00:14:05;;;;;;;3.67;2.90;;;;;;;;;;5114771;28;20039;-69
2021/08/02 00:16:32;;;;;;;4.57;2.45;;;;;;;;;;5114427;28;20039;-69
2021/08/02 00:18:59;;;;;;;2.80;2.40;;;;;;;;;;5114506;28;20027;-69
2021/08/02 00:21:25;;;;;;;3.65;2.47;;;;;;;;;;5114534;28;20027;-70
2021/08/02 00:23:51;;;;;;;6.85;2.60;;;;;;;;;;5114240;28;20402;-68
2021/08/02 00:26:17;;;;;;;4.72;2.60;;;;;;;;;;5114155;28;20090;-68
2021/08/02 00:28:43;;;;;;;3.80;2.55;;;;;;;;;;5114218;28;20035;-69
2021/08/02 00:31:10;;;;;;;4.60;2.50;;;;;;;;;;5114135;28;20023;-68
2021/08/02 00:33:36;;;;;;;5.30;2.63;;;;;;;;;;5114148;28;20028;-69
2021/08/02 00:36:10;;;;;;;3.85;2.47;;;;;;;;;;5113462;28;20145;-68
2021/08/02 00:38:39;;;;;;;4.10;2.50;;;;;;;;;;5114053;28;20493;-68
2021/08/02 00:41:13;;;;;;;3.80;3.00;;;;;;;;;;5113884;28;20039;-68
2021/08/02 00:43:58;;;;;;;4.57;2.60;;;;;;;;;;5113939;28;20030;-68
2021/08/02 00:46:27;;;;;;;3.87;2.80;;;;;;;;;;5113952;28;20038;-68
2021/08/02 00:49:03;;;;;;;5.20;2.65;;;;;;;;;;5113825;28;20019;-69
2021/08/02 00:51:33;;;;;;;5.28;2.97;;;;;;;;;;5113901;28;20023;-68
2021/08/02 00:54:00;;;;;;;4.70;2.60;;;;;;;;;;5113887;28;20386;-68
2021/08/02 00:56:31;;;;;;;4.82;3.00;;;;;;;;;;5113640;28;20048;-68
2021/08/02 00:58:59;;;;;;;3.72;3.13;;;;;;;;;;5113718;28;20024;-69
2021/08/02 01:01:26;;;;;;;5.05;3.00;;;;;;;;;;5112390;28;20040;-68
2021/08/02 01:03:53;;;;;;;6.32;2.72;;;;;;;;;;5113759;28;20046;-68
2021/08/02 01:06:20;;;;;;;5.85;3.25;;;;;;;;;;5102906;28;20016;-68
2021/08/02 01:08:48;;;;;;;5.10;3.17;;;;;;;;;;5093034;28;20024;-68
2021/08/02 01:11:16;;;;;;;4.32;2.65;;;;;;;;;;5093199;28;20384;-68
2021/08/02 01:13:43;;;;;;;3.75;2.67;;;;;;;;;;5093155;28;20074;-68
2021/08/02 01:16:10;;;;;;;3.95;2.80;;;;;;;;;;5093262;28;20106;-68
2021/08/02 01:18:37;;;;;;;4.78;2.97;;;;;;;;;;5093022;28;20016;-68
2021/08/02 01:21:06;;;;;;;4.38;2.88;;;;;;;;;;5092758;28;20031;-68
2021/08/02 01:23:33;;;;;;;5.72;2.78;;;;;;;;;;5093231;28;20032;-69
2021/08/02 01:25:59;;;;;;;8.80;3.22;;;;;;;;;;5092943;28;20472;-69
2021/08/02 01:28:25;;;;;;;3.67;2.80;;;;;;;;;;5092906;28;20107;-68
2021/08/02 01:30:55;;;;;;;5.00;2.83;;;;;;;;;;5092765;28;20062;-68
2021/08/02 01:33:28;;;;;;;6.50;3.33;;;;;;;;;;5093085;28;20028;-69
2021/08/02 01:35:58;;;;;;;3.38;2.45;;;;;;;;;;5092650;28;20085;-69
2021/08/02 01:38:25;;;;;;;3.75;2.90;;;;;;;;;;5092643;28;20025;-68
2021/08/02 01:40:51;;;;;;;4.95;3.45;;;;;;;;;;5092908;28;20040;-69
2021/08/02 01:43:17;;;;;;;4.13;3.17;;;;;;;;;;5092949;28;20107;-69
2021/08/02 01:45:46;;;;;;;3.88;2.80;;;;;;;;;;5091360;28;20023;-69
2021/08/02 01:48:18;;;;;;;6.97;3.30;;;;;;;;;;5092557;28;20024;-68
2021/08/02 01:50:54;;;;;;;3.70;3.08;;;;;;;;;;5092537;28;20027;-69
2021/08/02 01:53:43;;;;;;;4.55;3.03;;;;;;;;;;5092908;28;20482;-68
2021/08/02 01:56:09;;;;;;;5.70;3.13;;;;;;;;;;5063785;28;20071;-68
2021/08/02 01:58:41;;;;;;;5.55;3.22;;;;;;;;;;5092732;28;20024;-68
2021/08/02 02:01:08;;;;;;;4.82;3.45;;;;;;;;;;5092410;28;20528;-68
2021/08/02 02:03:35;;;;;;;4.07;3.33;;;;;;;;;;5103666;28;20062;-69
2021/08/02 02:06:02;;;;;;;4.85;3.65;;;;;;;;;;5112770;28;20493;-68
2021/08/02 02:08:47;;;;;;;5.95;3.53;;;;;;;;;;5112842;28;20470;-68
2021/08/02 02:11:14;;;;;;;3.87;3.03;;;;;;;;;;5112903;28;20023;-69
2021/08/02 02:13:44;;;;;;;4.10;3.20;;;;;;;;;;5112843;28;20115;-69
2021/08/02 02:16:11;;;;;;;5.25;3.47;;;;;;;;;;5112815;28;20076;-68
2021/08/02 02:18:39;;;;;;;5.00;3.53;;;;;;;;;;5112818;28;20387;-68
2021/08/02 02:21:08;;;;;;;3.55;3.25;;;;;;;;;;5116200;28;20031;-68
2021/08/02 02:23:34;;;;;;;6.38;3.42;;;;;;;;;;5116755;28;20028;-68
2021/08/02 02:26:01;;;;;;;5.47;3.30;;;;;;;;;;5116720;28;20054;-68
2021/08/02 02:28:28;;;;;;;4.78;3.35;;;;;;;;;;5116748;28;20062;-68
2021/08/02 02:30:56;;;;;;;4.93;3.08;;;;;;;;;;5116524;28;20019;-69
2021/08/02 02:33:23;;;;;;;4.07;3.28;;;;;;;;;;5116367;28;20043;-68
2021/08/02 02:35:50;;;;;;;4.07;3.00;;;;;;;;;;5116574;28;20024;-69
2021/08/02 02:38:17;;;;;;;3.83;3.42;;;;;;;;;;5116370;27;20099;-67
2021/08/02 02:40:44;;;;;;;6.22;3.47;;;;;;;;;;5116611;28;20537;-68
2021/08/02 02:43:11;;;;;;;6.32;3.42;;;;;;;;;;5116774;28;20032;-68
2021/08/02 02:45:38;;;;;;;4.22;3.22;;;;;;;;;;5116213;28;20027;-69
2021/08/02 02:48:05;;;;;;;5.43;2.88;;;;;;;;;;5111532;28;20022;-68
2021/08/02 02:50:32;;;;;;;6.90;3.35;;;;;;;;;;5105126;28;20028;-68
2021/08/02 02:52:58;;;;;;;3.53;2.90;;;;;;;;;;5095844;28;20035;-69
2021/08/02 02:55:26;;;;;;;4.63;3.05;;;;;;;;;;5095710;28;20658;-68
2021/08/02 02:57:52;;;;;;;5.13;3.40;;;;;;;;;;5095677;28;20031;-68
2021/08/02 03:00:19;;;;;;;5.88;3.67;;;;;;;;;;5095529;28;20047;-68
2021/08/02 03:02:46;;;;;;;3.72;3.00;;;;;;;;;;5099897;28;20019;-68
2021/08/02 03:05:13;;;;;;;3.88;2.88;;;;;;;;;;5115866;28;20455;-68
2021/08/02 03:07:39;;;;;;;4.03;3.50;;;;;;;;;;5115868;28;20390;-69
2021/08/02 03:10:06;;;;;;;4.30;3.05;;;;;;;;;;5115726;28;20016;-69
2021/08/02 03:12:34;;;;;;;4.07;2.80;;;;;;;;;;5115819;28;20024;-68
2021/08/02 03:15:00;;;;;;;4.32;2.97;;;;;;;;;;5115759;28;20034;-68
2021/08/02 03:17:26;;;;;;;6.57;3.10;;;;;;;;;;5115557;28;20058;-68
2021/08/02 03:19:53;;;;;;;3.58;3.08;;;;;;;;;;5115632;28;20031;-69
2021/08/02 03:22:25;;;;;;;3.60;3.03;;;;;;;;;;5115598;28;20486;-68
2021/08/02 03:24:53;;;;;;;5.45;3.30;;;;;;;;;;5115554;28;20023;-69
2021/08/02 03:27:32;;;;;;;4.88;2.78;;;;;;;;;;5115485;28;20024;-69
2021/08/02 03:30:00;;;;;;;6.25;4.68;;;;;;;;;;5115407;28;20520;-68
2021/08/02 03:32:27;;;;;;;6.50;4.07;;;;;;;;;;5113889;28;20103;-68
2021/08/02 03:34:59;;;;;;;3.92;3.10;;;;;;;;;;5115445;28;20047;-68
2021/08/02 03:37:26;;;;;;;3.67;3.00;;;;;;;;;;5115219;28;20035;-68
2021/08/02 03:39:54;;;;;;;5.18;3.67;;;;;;;;;;5114146;28;20047;-68
2021/08/02 03:42:22;;;;;;;5.90;3.35;;;;;;;;;;5115123;28;20034;-68
2021/08/02 03:44:49;;;;;;;8.45;3.42;;;;;;;;;;5114827;28;20039;-68
2021/08/02 03:47:15;;;;;;;5.07;3.20;;;;;;;;;;5115038;28;20020;-68
2021/08/02 03:49:42;;;;;;;6.28;3.25;;;;;;;;;;5115267;28;20027;-68
2021/08/02 03:52:08;;;;;;;3.72;3.00;;;;;;;;;;5114950;28;20482;-68
2021/08/02 03:54:34;;;;;;;4.95;3.10;;;;;;;;;;5115029;28;20080;-68
2021/08/02 03:57:01;;;;;;;4.93;3.78;;;;;;;;;;5114969;28;20035;-68
2021/08/02 03:59:28;;;;;;;5.40;3.17;;;;;;;;;;5115485;28;20106;-69
2021/08/02 04:01:54;;;;;;;3.75;3.10;;;;;;;;;;5114914;28;20030;-68
2021/08/02 04:04:20;;;;;;;5.45;3.25;;;;;;;;;;5114642;28;20069;-68
2021/08/02 04:06:46;;;;;;;5.10;3.20;;;;;;;;;;5114646;28;20016;-68
2021/08/02 04:09:13;;;;;;;4.60;3.47;;;;;;;;;;5114902;28;20023;-68
2021/08/02 04:11:42;;;;;;;4.78;3.20;;;;;;;;;;5114521;28;20016;-68
2021/08/02 04:14:09;;;;;;;5.95;3.65;;;;;;;;;;5113229;28;20044;-68
2021/08/02 04:16:35;;;;;;;6.43;3.58;;;;;;;;;;5114557;28;20047;-68
2021/08/02 04:19:01;;;;;;;5.22;3.53;;;;;;;;;;5114449;28;20027;-68
2021/08/02 04:21:28;;;;;;;4.53;3.33;;;;;;;;;;5113106;28;20027;-69
2021/08/02 04:23:54;;;;;;;5.60;3.40;;;;;;;;;;5114448;28;20023;-67
2021/08/02 04:26:20;;;;;;;5.65;3.35;;;;;;;;;;5114391;28;20443;-67
2021/08/02 04:28:46;;;;;;;6.13;3.50;;;;;;;;;;5114321;28;20024;-68
2021/08/02 04:31:13;;;;;;;5.22;3.45;;;;;;;;;;5114665;28;20477;-67
2021/08/02 04:33:39;;;;;;;5.47;3.40;;;;;;;;;;5114249;28;20059;-68
2021/08/02 04:36:05;;;;;;;3.80;3.40;;;;;;;;;;5114129;28;20024;-68
2021/08/02 04:38:32;;;;;;;5.25;3.78;;;;;;;;;;5114007;28;20524;-68
2021/08/02 04:40:58;;;;;;;5.63;3.60;;;;;;;;;;5114135;28;20061;-68
2021/08/02 04:43:24;;;;;;;4.38;3.47;;;;;;;;;;5113237;28;20473;-68
2021/08/02 04:45:50;;;;;;;4.82;3.20;;;;;;;;;;5113938;28;20027;-67
2021/08/02 04:48:16;;;;;;;7.28;3.70;;;;;;;;;;5113989;28;20028;-67
2021/08/02 04:50:43;;;;;;;5.65;3.80;;;;;;;;;;5113885;28;20028;-68
2021/08/02 04:53:10;;;;;;;5.18;3.65;;;;;;;;;;5113847;28;20040;-67
2021/08/02 04:55:36;;;;;;;7.50;3.45;;;;;;;;;;5114088;28;20019;-68
2021/08/02 04:58:03;;;;;;;6.18;3.20;;;;;;;;;;5113709;28;20027;-67
2021/08/02 05:00:29;;;;;;;5.43;3.72;;;;;;;;;;5113501;28;20126;-68
2021/08/02 05:02:55;;;;;;;5.13;3.30;;;;;;;;;;5113641;28;20027;-68
2021/08/02 05:05:21;;;;;;;7.22;3.65;;;;;;;;;;5113580;28;20463;-69
2021/08/02 05:07:47;;;;;;;4.53;3.72;;;;;;;;;;5113519;28;20024;-69
2021/08/02 05:10:13;;;;;;;4.40;3.63;;;;;;;;;;5113583;28;20024;-68
2021/08/02 05:12:41;;;;;;;3.97;2.90;;;;;;;;;;5113439;28;20485;-69
2021/08/02 05:15:08;;;;;;;4.20;3.80;;;;;;;;;;5112139;28;20040;-68
2021/08/02 05:17:35;;;;;;;5.25;3.58;;;;;;;;;;5113215;28;20023;-67
2021/08/02 05:20:01;;;;;;;4.78;3.30;;;;;;;;;;5113461;28;20051;-67
2021/08/02 05:22:27;;;;;;;4.38;3.67;;;;;;;;;;5113276;28;20024;-68
2021/08/02 05:24:53;;;;;;;5.55;3.42;;;;;;;;;;5112053;28;20505;-68
2021/08/02 05:27:19;;;;;;;4.15;3.58;;;;;;;;;;5113409;28;20030;-68
2021/08/02 05:29:45;;;;;;;5.90;3.95;;;;;;;;;;5113323;28;20102;-68
2021/08/02 05:32:11;;;;;;;8.48;3.78;;;;;;;;;;5113167;28;20050;-68
2021/08/02 05:34:41;;;;;;;4.63;3.47;;;;;;;;;;5113065;28;20024;-68
2021/08/02 05:37:08;;;;;;;5.47;3.28;;;;;;;;;;5113221;28;20055;-68
2021/08/02 05:39:34;;;;;;;5.55;3.55;;;;;;;;;;5113402;28;20030;-68
2021/08/02 05:42:00;;;;;;;5.10;3.83;;;;;;;;;;5112941;28;20050;-67
2021/08/02 05:44:26;;;;;;;4.78;3.40;;;;;;;;;;5113060;28;20024;-68
2021/08/02 05:46:52;;;;;;;4.90;3.35;;;;;;;;;;5112953;28;20028;-68
2021/08/02 05:49:18;;;;;;;4.38;3.42;;;;;;;;;;5111834;28;20026;-67
2021/08/02 05:51:44;;;;;;;7.20;3.70;;;;;;;;;;5103990;28;20141;-67
2021/08/02 05:54:10;;;;;;;4.68;3.90;;;;;;;;;;5092917;28;20024;-68
2021/08/02 05:56:36;;;;;;;5.70;3.80;;;;;;;;;;5096676;28;20050;-68
2021/08/02 05:59:02;;;;;;;4.80;3.28;;;;;;;;;;5096895;28;20041;-68
2021/08/02 06:01:28;;;;;;;6.15;3.80;;;;;;;;;;5096572;28;20533;-67
2021/08/02 06:03:54;;;;;;;5.15;3.63;;;;;;;;;;5110919;28;20631;-67
2021/08/02 06:06:21;;;;;;;4.05;3.17;;;;;;;;;;5116992;28;20030;-67
2021/08/02 06:08:47;;;;;;;5.00;3.33;;;;;;;;;;5117065;28;20046;-67
2021/08/02 06:11:13;;;;;;;5.32;3.55;;;;;;;;;;5117100;28;20024;-68
2021/08/02 06:13:39;;;;;;;4.57;3.40;;;;;;;;;;5117052;28;20019;-69
2021/08/02 06:16:05;;;;;;;5.05;3.90;;;;;;;;;;5117294;28;20031;-68
2021/08/02 06:18:31;;;;;;;5.32;3.95;;;;;;;;;;5117117;28;20389;-68
2021/08/02 06:20:57;;;;;;;4.82;3.88;;;;;;;;;;5116624;28;20019;-68
2021/08/02 06:23:23;;;;;;;4.55;3.70;;;;;;;;;;5116954;28;20050;-69
2021/08/02 06:25:52;;;;;;;5.72;3.58;;;;;;;;;;5116558;28;20020;-68
2021/08/02 06:28:19;;;;;;;4.68;3.22;;;;;;;;;;5115404;28;20377;-68
2021/08/02 06:30:45;;;;;;;5.35;3.90;;;;;;;;;;5116806;28;20019;-69
2021/08/02 06:33:11;;;;;;;4.78;3.90;;;;;;;;;;5116054;28;20102;-68
2021/08/02 06:35:37;;;;;;;3.67;3.28;;;;;;;;;;5116532;28;20027;-68
2021/08/02 06:38:04;;;;;;;4.68;3.50;;;;;;;;;;5116451;28;20028;-68
2021/08/02 06:40:30;;;;;;;5.00;3.30;;;;;;;;;;5116376;28;20031;-68
2021/08/02 06:42:56;;;;;;;5.03;3.45;;;;;;;;;;5116261;28;20032;-68
2021/08/02 06:45:22;;;;;;;5.45;3.63;;;;;;;;;;5116372;28;20111;-68
2021/08/02 06:47:48;;;;;;;4.70;3.80;;;;;;;;;;5116217;28;20540;-69
2021/08/02 06:50:15;;;;;;;4.10;3.25;;;;;;;;;;5115212;28;20027;-67
2021/08/02 06:52:41;;;;;;;3.78;3.28;;;;;;;;;;5114675;28;20036;-68
2021/08/02 06:55:07;;;;;;;5.55;3.53;;;;;;;;;;5114305;28;20028;-68
2021/08/02 06:57:33;;;;;;;4.00;3.50;;;;;;;;;;5114336;28;20031;-65
2021/08/02 06:59:59;;;;;;;4.30;3.28;;;;;;;;;;5114118;28;20498;-68
2021/08/02 07:02:25;;;;;;;4.45;3.45;;;;;;;;;;5114749;28;20397;-68
2021/08/02 07:04:51;;;;;;;4.97;3.90;;;;;;;;;;5116458;28;20031;-66
2021/08/02 07:07:17;;;;;;;4.50;3.63;;;;;;;;;;5115029;28;20072;-67
2021/08/02 07:09:44;;;;;;;4.57;3.50;;;;;;;;;;5115027;28;20040;-66
2021/08/02 07:12:10;;;;;;;5.65;3.40;;;;;;;;;;5115884;28;20024;-67
2021/08/02 07:14:36;;;;;;;4.22;3.15;;;;;;;;;;5115669;28;20024;-67
2021/08/02 07:17:02;;;;;;;4.05;3.40;;;;;;;;;;5115667;28;20389;-67
2021/08/02 07:19:28;;;;;;;5.70;3.67;;;;;;;;;;5115144;28;20055;-67
2021/08/02 07:21:54;;;;;;;5.65;3.60;;;;;;;;;;5114600;28;20035;-66
2021/08/02 07:24:20;;;;;;;6.03;3.35;;;;;;;;;;5115114;28;20019;-67
2021/08/02 07:26:46;;;;;;;5.13;3.97;;;;;;;;;;5115066;28;20028;-67
2021/08/02 07:29:12;;;;;;;5.93;3.47;;;;;;;;;;5115024;28;20470;-67
2021/08/02 07:31:39;;;;;;;5.80;3.72;;;;;;;;;;5114887;28;20501;-67
2021/08/02 07:34:05;;;;;;;5.53;4.28;;;;;;;;;;5114812;28;20024;-67
2021/08/02 07:36:32;;;;;;;5.35;4.03;;;;;;;;;;5115307;28;20463;-67
2021/08/02 07:38:58;;;;;;;8.32;4.43;;;;;;;;;;5114518;28;20055;-66
2021/08/02 07:41:24;;;;;;;6.53;3.83;;;;;;;;;;5113482;28;20428;-67
2021/08/02 07:43:50;;;;;;;5.38;3.90;;;;;;;;;;5114252;28;20028;-67
2021/08/02 07:46:16;;;;;;;6.93;3.50;;;;;;;;;;5114992;28;20011;-67
2021/08/02 07:48:43;;;;;;;4.22;3.75;;;;;;;;;;5114998;28;20020;-67
2021/08/02 07:51:09;;;;;;;5.53;3.88;;;;;;;;;;5112170;28;20023;-68
2021/08/02 07:53:35;;;;;;;5.50;3.58;;;;;;;;;;5113774;28;20047;-68
2021/08/02 07:56:01;;;;;;;4.43;3.75;;;;;;;;;;5113062;28;20035;-69
2021/08/02 07:58:27;;;;;;;3.70;3.17;;;;;;;;;;5113623;28;20031;-69
2021/08/02 08:00:53;;;;;;;5.80;3.35;;;;;;;;;;5113663;28;20054;-67
2021/08/02 08:03:20;;;;;;;4.78;3.20;;;;;;;;;;5114261;28;20023;-69
2021/08/02 08:05:46;;;;;;;6.45;3.38;;;;;;;;;;5114746;28;20015;-67
2021/08/02 08:08:12;;;;;;;3.90;3.20;;;;;;;;;;5114379;28;20019;-67
2021/08/02 08:10:38;;;;;;;4.60;3.50;;;;;;;;;;5114535;28;20020;-67
2021/08/02 08:13:06;;;;;;;5.05;3.55;;;;;;;;;;5114059;28;20486;-67
2021/08/02 08:15:33;;;;;;;5.15;3.88;;;;;;;;;;5113959;28;20031;-69
2021/08/02 08:17:59;;;;;;;5.78;3.55;;;;;;;;;;5113184;28;20051;-69
2021/08/02 08:20:26;;;;;;;4.60;3.30;;;;;;;;;;5113804;28;20478;-69
2021/08/02 08:22:54;;;;;;;3.45;3.10;;;;;;;;;;5114260;28;20038;-68
2021/08/02 08:25:20;;;;;;;6.30;3.42;;;;;;;;;;5113847;28;20020;-67
2021/08/02 08:27:46;;;;;;;5.97;3.28;;;;;;;;;;5113058;28;20016;-69
2021/08/02 08:30:13;;;;;;;6.55;3.38;;;;;;;;;;5113498;28;20024;-66
2021/08/02 08:32:39;;;;;;;4.10;3.70;;;;;;;;;;5113868;28;20020;-68
2021/08/02 08:35:06;;;;;;;6.25;3.47;;;;;;;;;;5113741;28;20032;-68
2021/08/02 08:37:32;;;;;;;8.32;3.42;;;;;;;;;;5113681;28;20031;-68
2021/08/02 08:39:58;;;;;;;4.28;3.45;;;;;;;;;;5114258;28;20024;-69
2021/08/02 08:42:24;;;;;;;4.18;3.60;;;;;;;;;;5113854;28;20107;-69
2021/08/02 08:44:50;;;;;;;4.72;3.20;;;;;;;;;;5112969;28;20028;-68
2021/08/02 08:47:16;;;;;;;4.35;3.35;;;;;;;;;;5113619;28;20016;-68
2021/08/02 08:49:42;;;;;;;4.53;2.92;;;;;;;;;;5113856;28;20034;-67
2021/08/02 08:52:09;;;;;;;6.38;3.53;;;;;;;;;;5107017;28;20027;-68
2021/08/02 08:54:36;;;;;;;3.97;3.00;;;;;;;;;;5107902;28;20039;-68
2021/08/02 08:57:03;;;;;;;5.80;3.70;;;;;;;;;;5105280;28;20023;-67
2021/08/02 08:59:30;;;;;;;3.90;3.03;;;;;;;;;;5113297;28;20492;-68
2021/08/02 09:02:03;;;;;;;4.22;3.00;;;;;;;;;;5113948;28;20082;-68
2021/08/02 09:04:30;;;;;;;4.00;3.60;;;;;;;;;;5113191;28;20076;-70
2021/08/02 09:07:01;;;;;;;5.55;3.10;;;;;;;;;;5113324;28;20050;-69
2021/08/02 09:09:31;;;;;;;6.13;3.28;;;;;;;;;;5113367;28;20027;-68
2021/08/02 09:12:23;;;;;;;3.83;2.83;;;;;;;;;;5113434;28;20103;-68
2021/08/02 09:14:50;;;;;;;3.97;2.95;;;;;;;;;;5109481;28;20080;-69
2021/08/02 09:17:26;;;;;;;5.47;3.22;;;;;;;;;;5113649;28;20024;-69
2021/08/02 09:19:52;;;;;;;3.60;2.92;;;;;;;;;;5112425;28;20031;-69
2021/08/02 09:22:31;;;;;;;4.13;2.92;;;;;;;;;;5113212;28;20022;-68
2021/08/02 09:25:09;;;;;;;5.68;3.30;;;;;;;;;;5112959;28;20041;-68
2021/08/02 09:27:36;;;;;;;4.88;2.85;;;;;;;;;;5112976;28;20019;-68
2021/08/02 09:30:25;;;;;;;3.92;2.85;;;;;;;;;;5113266;28;20024;-68
2021/08/02 09:32:55;;;;;;;2.88;2.53;;;;;;;;;;5102179;28;20409;-68
2021/08/02 09:35:39;;;;;;;2.80;2.42;;;;;;;;;;5112962;28;20015;-68
2021/08/02 09:38:06;;;;;;;3.47;2.85;;;;;;;;;;5113227;28;20047;-68
2021/08/02 09:40:41;;;;;;;4.97;2.60;;;;;;;;;;5112700;28;20035;-68
2021/08/02 09:43:09;;;;;;;3.50;2.47;;;;;;;;;;5112922;28;20389;-69
2021/08/02 09:46:01;;;;;;;4.03;2.42;;;;;;;;;;5112999;28;20084;-69
2021/08/02 09:48:41;;;;;;;4.65;2.88;;;;;;;;;;5109261;28;20035;-68
2021/08/02 09:51:10;;;;;;;3.50;2.80;;;;;;;;;;5112736;28;20381;-68
2021/08/02 09:53:38;;;;;;;4.40;2.70;;;;;;;;;;5112898;28;20024;-68
2021/08/02 09:56:04;;;;;;;3.08;2.78;;;;;;;;;;5110258;28;20042;-68
2021/08/02 09:58:31;;;;;;;3.30;2.88;;;;;;;;;;5112744;28;20032;-69
2021/08/02 10:00:57;;;;;;;3.92;2.90;;;;;;;;;;5099490;28;20047;-69
2021/08/02 10:03:23;;;;;;;2.65;2.20;;;;;;;;;;5112838;28;20055;-68
2021/08/02 10:05:50;;;;;;;2.97;2.50;;;;;;;;;;5112698;28;20012;-68
2021/08/02 10:08:18;;;;;;;3.05;2.53;;;;;;;;;;5112511;28;20028;-68
2021/08/02 10:10:44;;;;;;;4.53;3.10;;;;;;;;;;5112302;28;20057;-68
2021/08/02 10:13:10;;;;;;;4.20;2.75;;;;;;;;;;5112407;28;20089;-68
2021/08/02 10:15:36;;;;;;;3.72;3.05;;;;;;;;;;5112674;28;20474;-68
2021/08/02 10:18:03;;;;;;;3.97;2.80;;;;;;;;;;5112373;28;20607;-68
2021/08/02 10:20:33;;;;;;;3.10;2.78;;;;;;;;;;5112674;28;20032;-68
2021/08/02 10:23:00;;;;;;;4.00;2.88;;;;;;;;;;5104769;28;20039;-68
2021/08/02 10:25:40;;;;;;;4.68;2.67;;;;;;;;;;5112236;28;20023;-68
2021/08/02 10:28:06;;;;;;;4.00;2.90;;;;;;;;;;5112216;28;20034;-68
2021/08/02 10:30:32;;;;;;;4.32;2.75;;;;;;;;;;5112550;28;20098;-68
2021/08/02 10:32:58;;;;;;;4.95;2.95;;;;;;;;;;5112121;28;20015;-68
2021/08/02 10:35:38;;;;;;;3.63;2.95;;;;;;;;;;5112534;28;20020;-68
2021/08/02 10:38:08;;;;;;;5.47;3.40;;;;;;;;;;5111541;28;20418;-67
2021/08/02 10:40:53;;;;;;;4.40;3.50;;;;;;;;;;5111914;28;20019;-68
2021/08/02 10:43:29;;;;;;;3.83;2.90;;;;;;;;;;5115435;28;20028;-68
2021/08/02 10:45:56;;;;;;;3.42;2.90;;;;;;;;;;5115527;28;20030;-69
2021/08/02 10:48:27;;;;;;;4.10;2.85;;;;;;;;;;5116113;27;20031;-67
2021/08/02 10:50:53;;;;;;;5.03;2.72;;;;;;;;;;5116201;28;20032;-69
2021/08/02 10:53:20;;;;;;;4.15;2.90;;;;;;;;;;5115781;28;20102;-68
2021/08/02 10:55:49;;;;;;;3.85;2.88;;;;;;;;;;5113363;28;20125;-68
2021/08/02 10:58:24;;;;;;;5.38;3.45;;;;;;;;;;5115787;28;20019;-68
2021/08/02 11:00:58;;;;;;;4.50;3.20;;;;;;;;;;5115364;28;20054;-68
2021/08/02 11:03:43;;;;;;;5.10;3.00;;;;;;;;;;5115728;28;20031;-68
2021/08/02 11:06:11;;;;;;;5.47;2.78;;;;;;;;;;5114692;28;20019;-69
2021/08/02 11:08:51;;;;;;;4.85;3.75;;;;;;;;;;5114895;28;20382;-68
2021/08/02 11:11:22;;;;;;;3.58;3.03;;;;;;;;;;5115144;28;20024;-69
2021/08/02 11:13:48;;;;;;;7.00;4.50;;;;;;;;;;5114234;28;20059;-68
2021/08/02 11:16:14;;;;;;;4.70;3.78;;;;;;;;;;5113305;28;20390;-68
2021/08/02 11:18:45;;;;;;;6.93;3.17;;;;;;;;;;5109898;28;20650;-68
2021/08/02 11:21:21;;;;;;;4.15;3.30;;;;;;;;;;5095177;28;20050;-68
2021/08/02 11:23:47;;;;;;;6.18;3.33;;;;;;;;;;5101864;28;20055;-68
2021/08/02 11:26:13;;;;;;;6.65;4.35;;;;;;;;;;5115113;28;20015;-69
2021/08/02 11:28:42;;;;;;;4.78;3.22;;;;;;;;;;5111277;28;20023;-68
2021/08/02 11:31:09;;;;;;;6.93;4.00;;;;;;;;;;5115251;28;20028;-68
2021/08/02 11:33:36;;;;;;;5.18;3.40;;;;;;;;;;5114521;28;20446;-68
2021/08/02 11:36:03;;;;;;;4.20;3.20;;;;;;;;;;5115245;28;20470;-67
2021/08/02 11:38:36;;;;;;;6.97;4.10;;;;;;;;;;5114954;28;20036;-68
2021/08/02 11:41:02;;;;;;;9.30;4.07;;;;;;;;;;5114337;28;20034;-67
2021/08/02 11:43:28;;;;;;;16.83;4.68;;;;;;;;;;5114586;28;20505;-67
2021/08/02 11:45:54;;;;;;;5.05;4.00;;;;;;;;;;5114523;28;20031;-67
2021/08/02 11:48:22;;;;;;;9.32;3.92;;;;;;;;;;5115064;28;20037;-67
2021/08/02 11:50:49;;;;;;;8.73;4.70;;;;;;;;;;5114474;28;20397;-68
2021/08/02 11:53:15;;;;;;;7.45;4.60;;;;;;;;;;5113219;28;20051;-69
2021/08/02 11:55:51;;;;;;;7.80;5.07;;;;;;;;;;5114277;28;20106;-68
2021/08/02 11:58:17;;;;;;;7.90;4.63;;;;;;;;;;5110097;28;20164;-68
2021/08/02 12:00:43;;;;;;;9.52;5.05;;;;;;;;;;5114271;28;20100;-70
2021/08/02 12:03:13;;;;;;;9.80;4.50;;;;;;;;;;5113893;28;20521;-68
2021/08/02 12:05:39;;;;;;;7.60;4.30;;;;;;;;;;5114115;28;20386;-68
2021/08/02 12:08:16;;;;;;;8.60;4.72;;;;;;;;;;5114543;28;20020;-68
2021/08/02 12:10:42;;;;;;;10.40;5.30;;;;;;;;;;5113823;28;20028;-67
2021/08/02 12:13:12;;;;;;;6.18;4.25;;;;;;;;;;5113343;28;20431;-67
2021/08/02 12:15:49;;;;;;;7.63;4.70;;;;;;;;;;5114281;28;20614;-68
2021/08/02 12:18:21;;;;;;;8.00;4.47;;;;;;;;;;5113970;28;20039;-69
2021/08/02 12:20:47;;;;;;;6.32;4.07;;;;;;;;;;5111523;28;20359;-69
2021/08/02 12:23:21;;;;;;;6.15;4.30;;;;;;;;;;5114264;28;20030;-68
2021/08/02 12:25:47;;;;;;;6.65;4.05;;;;;;;;;;5113668;28;20031;-68
2021/08/02 12:28:13;;;;;;;7.90;4.40;;;;;;;;;;5112457;28;20038;-68
2021/08/02 12:30:40;;;;;;;6.28;3.78;;;;;;;;;;5113289;28;20016;-68
2021/08/02 12:33:07;;;;;;;7.85;4.45;;;;;;;;;;5093727;28;20031;-68
2021/08/02 12:35:33;;;;;;;6.85;4.72;;;;;;;;;;5112460;28;20441;-68
2021/08/02 12:38:00;;;;;;;5.70;4.13;;;;;;;;;;5112790;28;20024;-68
2021/08/02 12:40:27;;;;;;;5.85;4.70;;;;;;;;;;5113731;28;20027;-68
2021/08/02 12:42:53;;;;;;;5.78;4.13;;;;;;;;;;5113922;28;20016;-69
2021/08/02 12:45:19;;;;;;;6.60;3.70;;;;;;;;;;5113177;28;20510;-68
2021/08/02 12:47:49;;;;;;;5.07;3.92;;;;;;;;;;5113677;28;20028;-68
2021/08/02 12:50:16;;;;;;;5.55;4.32;;;;;;;;;;5113562;28;20020;-69
2021/08/02 12:52:42;;;;;;;5.50;4.07;;;;;;;;;;5112963;28;20023;-68
2021/08/02 12:55:10;;;;;;;6.63;4.13;;;;;;;;;;5113608;28;20037;-68
2021/08/02 12:57:42;;;;;;;6.32;4.03;;;;;;;;;;5113101;28;20036;-68
2021/08/02 13:00:10;;;;;;;6.10;3.85;;;;;;;;;;5113333;28;20047;-68
2021/08/02 13:02:36;;;;;;;7.15;4.35;;;;;;;;;;5113200;28;20490;-68
2021/08/02 13:05:02;;;;;;;6.80;4.28;;;;;;;;;;5112893;28;20444;-68
2021/08/02 13:07:28;;;;;;;6.13;3.90;;;;;;;;;;5098938;28;20024;-69
2021/08/02 13:09:55;;;;;;;6.28;4.40;;;;;;;;;;5110639;28;20471;-68
2021/08/02 13:12:22;;;;;;;5.72;4.10;;;;;;;;;;5113414;28;20090;-69
2021/08/02 13:14:48;;;;;;;4.53;3.53;;;;;;;;;;5113030;28;20039;-69
2021/08/02 13:17:15;;;;;;;4.35;3.38;;;;;;;;;;5113365;28;20020;-68
2021/08/02 13:19:43;;;;;;;4.75;3.00;;;;;;;;;;5113413;28;20028;-69
2021/08/02 13:22:14;;;;;;;3.67;2.70;;;;;;;;;;5111876;28;20410;-69
2021/08/02 13:27:25;;;;;;;4.05;2.92;;;;;;;;;;5113361;28;20123;-69
2021/08/02 13:29:51;;;;;;;5.70;3.97;;;;;;;;;;5113116;28;20471;-68
2021/08/02 13:32:17;;;;;;;3.30;2.33;;;;;;;;;;5113468;28;20045;-69
2021/08/02 13:34:47;;;;;;;3.30;2.75;;;;;;;;;;5113638;28;20023;-69
2021/08/02 13:37:13;;;;;;;3.22;2.40;;;;;;;;;;5112933;28;20497;-68
2021/08/02 13:39:40;;;;;;;3.10;2.75;;;;;;;;;;5112578;28;20557;-68
2021/08/02 13:42:10;;;;;;;3.70;2.60;;;;;;;;;;5112326;28;20062;-68
2021/08/02 13:44:36;;;;;;;3.05;2.58;;;;;;;;;;5112346;28;20032;-68
2021/08/02 13:47:04;;;;;;;2.65;2.45;;;;;;;;;;5112536;28;20050;-68
2021/08/02 13:49:32;;;;;;;2.92;2.25;;;;;;;;;;5112603;28;20098;-69
2021/08/02 13:51:59;;;;;;;4.13;2.75;;;;;;;;;;5111795;28;20020;-68
2021/08/02 13:54:25;;;;;;;3.50;2.80;;;;;;;;;;5110357;28;20028;-67
2021/08/02 13:56:51;;;;;;;3.42;2.45;;;;;;;;;;5112828;28;20024;-70
2021/08/02 13:59:17;;;;;;;4.57;2.70;;;;;;;;;;5111535;28;20103;-70
2021/08/02 14:01:43;;;;;;;3.22;2.60;;;;;;;;;;5111596;28;20497;-69
2021/08/02 14:04:09;;;;;;;3.67;2.67;;;;;;;;;;5112489;28;20032;-68
2021/08/02 14:06:37;;;;;;;3.80;2.60;;;;;;;;;;5112362;28;20020;-67
2021/08/02 14:09:04;;;;;;;3.50;2.83;;;;;;;;;;5107377;28;20027;-69
2021/08/02 14:11:30;;;;;;;3.72;2.80;;;;;;;;;;5112259;28;20023;-68
2021/08/02 14:13:57;;;;;;;4.25;2.70;;;;;;;;;;5111648;28;20023;-68
2021/08/02 14:16:29;;;;;;;3.30;2.80;;;;;;;;;;5114427;28;20110;-69
2021/08/02 14:19:14;;;;;;;4.03;3.08;;;;;;;;;;5096312;28;20497;-68
2021/08/02 14:21:42;;;;;;;3.45;3.08;;;;;;;;;;5114442;28;20114;-67
2021/08/02 14:24:09;;;;;;;4.35;2.75;;;;;;;;;;5116123;28;20020;-69
2021/08/02 14:26:35;;;;;;;4.50;3.40;;;;;;;;;;5116924;28;20024;-69
2021/08/02 14:29:04;;;;;;;3.53;2.95;;;;;;;;;;5116379;28;20034;-70
2021/08/02 14:31:30;;;;;;;4.43;3.00;;;;;;;;;;5116450;28;20470;-68
2021/08/02 14:33:57;;;;;;;3.60;2.95;;;;;;;;;;5115680;28;20019;-68
2021/08/02 14:36:23;;;;;;;4.53;3.85;;;;;;;;;;5116827;28;20100;-68
2021/08/02 14:38:53;;;;;;;4.28;3.20;;;;;;;;;;5116893;28;20027;-69
2021/08/02 14:41:24;;;;;;;4.20;3.05;;;;;;;;;;5114593;28;20081;-69
2021/08/02 14:43:51;;;;;;;3.95;3.47;;;;;;;;;;5114415;28;20028;-68
2021/08/02 14:46:18;;;;;;;4.93;3.58;;;;;;;;;;5114547;28;20106;-69
2021/08/02 14:48:48;;;;;;;5.05;3.05;;;;;;;;;;5113968;28;20024;-68
2021/08/02 14:51:25;;;;;;;4.80;3.75;;;;;;;;;;5114528;28;20020;-68